Daolin, China
Current Conditions -  °F | °C
As of 12:00 AM on Saturday 20 Dec 2014 (Local Time) from ZGHA Reporting Station
Haze Haze  
Wind Chill: 32°   Ceiling: Unl
Heat Index: 36°   Visibility: 2.5mi
Dew Point: 34°   Wind: 4mph
Humidity: 93%   Direction: 120°ESE
Pressure: 30.33"   Gusts: NA
Location:  28.02°N, 112.72°E
Report Text: ZGHA 191600Z 12002MPS 080V170 4000 BR NSC 02/01 Q1027 NOSIG
Loading
Personal Weather Stations






























Interactive Weather Map New forecast layout! Learn more

10-Day Weather Forecast

Advertisements
Track Severe Weather on mobile